sensor_id;sensor_type;location;lat;lon;timestamp;temperature;humidity
21799;DHT22;24973;47.178;15.316;2022-07-05T00:00:15;17.80;99.90
21799;DHT22;24973;47.178;15.316;2022-07-05T00:03:05;17.90;99.90
21799;DHT22;24973;47.178;15.316;2022-07-05T00:05:54;17.90;99.90
21799;DHT22;24973;47.178;15.316;2022-07-05T00:08:43;17.90;99.90
21799;DHT22;24973;47.178;15.316;2022-07-05T00:11:32;17.80;99.90
21799;DHT22;24973;47.178;15.316;2022-07-05T00:14:21;17.90;99.90
21799;DHT22;24973;47.178;15.316;2022-07-05T00:17:10;17.90;99.90
21799;DHT22;24973;47.178;15.316;2022-07-05T00:20:00;17.90;99.90
21799;DHT22;24973;47.178;15.316;2022-07-05T00:22:50;17.90;99.90
21799;DHT22;24973;47.178;15.316;2022-07-05T00:25:38;17.90;99.90
21799;DHT22;24973;47.178;15.316;2022-07-05T00:28:27;17.90;99.90
21799;DHT22;24973;47.178;15.316;2022-07-05T00:31:16;17.90;99.90
21799;DHT22;24973;47.178;15.316;2022-07-05T00:34:05;17.90;99.90
21799;DHT22;24973;47.178;15.316;2022-07-05T00:36:55;17.90;99.90
21799;DHT22;24973;47.178;15.316;2022-07-05T00:39:44;17.90;99.90
21799;DHT22;24973;47.178;15.316;2022-07-05T00:42:33;17.90;99.90
21799;DHT22;24973;47.178;15.316;2022-07-05T00:45:21;17.90;99.90
21799;DHT22;24973;47.178;15.316;2022-07-05T00:48:10;17.80;99.90
21799;DHT22;24973;47.178;15.316;2022-07-05T00:50:59;17.80;99.90
21799;DHT22;24973;47.178;15.316;2022-07-05T00:53:49;17.80;99.90
21799;DHT22;24973;47.178;15.316;2022-07-05T00:56:38;17.80;99.90
21799;DHT22;24973;47.178;15.316;2022-07-05T00:59:28;17.90;99.90
21799;DHT22;24973;47.178;15.316;2022-07-05T01:02:18;17.80;99.90
21799;DHT22;24973;47.178;15.316;2022-07-05T01:05:09;17.80;99.90
21799;DHT22;24973;47.178;15.316;2022-07-05T01:07:59;17.90;99.90
21799;DHT22;24973;47.178;15.316;2022-07-05T01:10:51;17.90;99.90
21799;DHT22;24973;47.178;15.316;2022-07-05T01:13:40;17.80;99.90
21799;DHT22;24973;47.178;15.316;2022-07-05T01:16:29;17.80;99.90
21799;DHT22;24973;47.178;15.316;2022-07-05T01:19:20;17.70;99.90
21799;DHT22;24973;47.178;15.316;2022-07-05T01:22:16;17.70;99.90
21799;DHT22;24973;47.178;15.316;2022-07-05T01:25:08;17.70;99.90
21799;DHT22;24973;47.178;15.316;2022-07-05T01:27:58;17.70;99.90
21799;DHT22;24973;47.178;15.316;2022-07-05T01:30:48;17.70;99.90
21799;DHT22;24973;47.178;15.316;2022-07-05T01:33:37;17.70;99.90
21799;DHT22;24973;47.178;15.316;2022-07-05T01:36:26;17.80;99.90
21799;DHT22;24973;47.178;15.316;2022-07-05T01:39:15;17.80;99.90
21799;DHT22;24973;47.178;15.316;2022-07-05T01:42:06;17.80;99.90
21799;DHT22;24973;47.178;15.316;2022-07-05T01:44:55;17.80;99.90
21799;DHT22;24973;47.178;15.316;2022-07-05T01:47:44;17.90;99.90
21799;DHT22;24973;47.178;15.316;2022-07-05T01:50:38;17.90;99.90
21799;DHT22;24973;47.178;15.316;2022-07-05T01:53:30;17.80;99.90
21799;DHT22;24973;47.178;15.316;2022-07-05T01:56:20;17.80;99.90
21799;DHT22;24973;47.178;15.316;2022-07-05T01:59:11;17.80;99.90
21799;DHT22;24973;47.178;15.316;2022-07-05T02:02:01;17.80;99.90
21799;DHT22;24973;47.178;15.316;2022-07-05T02:04:50;17.80;99.90
21799;DHT22;24973;47.178;15.316;2022-07-05T02:07:46;17.80;99.90
21799;DHT22;24973;47.178;15.316;2022-07-05T02:10:35;17.90;99.90
21799;DHT22;24973;47.178;15.316;2022-07-05T02:13:24;17.80;99.90
21799;DHT22;24973;47.178;15.316;2022-07-05T02:16:14;17.80;99.90
21799;DHT22;24973;47.178;15.316;2022-07-05T02:19:04;17.80;99.90
21799;DHT22;24973;47.178;15.316;2022-07-05T02:21:53;17.90;99.90
21799;DHT22;24973;47.178;15.316;2022-07-05T02:24:41;17.90;99.90
21799;DHT22;24973;47.178;15.316;2022-07-05T02:27:30;17.90;99.90
21799;DHT22;24973;47.178;15.316;2022-07-05T02:30:19;17.90;99.90
21799;DHT22;24973;47.178;15.316;2022-07-05T02:33:10;17.80;99.90
21799;DHT22;24973;47.178;15.316;2022-07-05T02:36:05;17.80;99.90
21799;DHT22;24973;47.178;15.316;2022-07-05T02:38:56;19.10;99.90
21799;DHT22;24973;47.178;15.316;2022-07-05T02:41:44;17.70;99.90
21799;DHT22;24973;47.178;15.316;2022-07-05T02:44:33;17.70;99.90
21799;DHT22;24973;47.178;15.316;2022-07-05T02:47:22;17.70;99.90
21799;DHT22;24973;47.178;15.316;2022-07-05T02:50:12;17.70;99.90
21799;DHT22;24973;47.178;15.316;2022-07-05T02:53:01;17.70;99.90
21799;DHT22;24973;47.178;15.316;2022-07-05T02:55:49;17.60;99.90
21799;DHT22;24973;47.178;15.316;2022-07-05T02:58:38;17.60;99.90
21799;DHT22;24973;47.178;15.316;2022-07-05T03:01:27;17.70;99.90
21799;DHT22;24973;47.178;15.316;2022-07-05T03:04:17;17.70;99.90
21799;DHT22;24973;47.178;15.316;2022-07-05T03:07:07;17.60;99.90
21799;DHT22;24973;47.178;15.316;2022-07-05T03:09:56;17.60;99.90
21799;DHT22;24973;47.178;15.316;2022-07-05T03:12:45;17.50;99.90
21799;DHT22;24973;47.178;15.316;2022-07-05T03:15:34;17.50;99.90
21799;DHT22;24973;47.178;15.316;2022-07-05T03:18:22;17.50;99.90
21799;DHT22;24973;47.178;15.316;2022-07-05T03:21:11;17.50;99.90
21799;DHT22;24973;47.178;15.316;2022-07-05T03:24:02;17.50;99.90
21799;DHT22;24973;47.178;15.316;2022-07-05T03:26:51;17.50;99.90
21799;DHT22;24973;47.178;15.316;2022-07-05T03:29:39;17.50;99.90
21799;DHT22;24973;47.178;15.316;2022-07-05T03:32:28;17.60;99.90
21799;DHT22;24973;47.178;15.316;2022-07-05T03:35:17;17.40;99.90
21799;DHT22;24973;47.178;15.316;2022-07-05T03:38:06;17.60;99.90
21799;DHT22;24973;47.178;15.316;2022-07-05T03:40:56;17.70;99.90
21799;DHT22;24973;47.178;15.316;2022-07-05T03:43:45;17.70;99.90
21799;DHT22;24973;47.178;15.316;2022-07-05T03:46:33;17.60;99.90
21799;DHT22;24973;47.178;15.316;2022-07-05T03:49:22;17.70;99.90
21799;DHT22;24973;47.178;15.316;2022-07-05T03:52:11;17.70;99.90
21799;DHT22;24973;47.178;15.316;2022-07-05T03:55:00;17.70;99.90
21799;DHT22;24973;47.178;15.316;2022-07-05T03:57:51;17.70;99.90
21799;DHT22;24973;47.178;15.316;2022-07-05T04:00:40;17.70;99.90
21799;DHT22;24973;47.178;15.316;2022-07-05T04:03:29;17.70;99.90
21799;DHT22;24973;47.178;15.316;2022-07-05T04:06:17;17.80;99.90
21799;DHT22;24973;47.178;15.316;2022-07-05T04:09:06;17.80;99.90
21799;DHT22;24973;47.178;15.316;2022-07-05T04:11:55;17.80;99.90
21799;DHT22;24973;47.178;15.316;2022-07-05T04:14:45;17.80;99.90
21799;DHT22;24973;47.178;15.316;2022-07-05T04:17:34;17.80;99.90
21799;DHT22;24973;47.178;15.316;2022-07-05T04:20:23;17.70;99.90
21799;DHT22;24973;47.178;15.316;2022-07-05T04:23:12;17.70;99.90
21799;DHT22;24973;47.178;15.316;2022-07-05T04:26:01;17.70;99.90
21799;DHT22;24973;47.178;15.316;2022-07-05T04:28:50;17.70;99.90
21799;DHT22;24973;47.178;15.316;2022-07-05T04:31:44;17.70;99.90
21799;DHT22;24973;47.178;15.316;2022-07-05T04:34:33;17.60;99.90
21799;DHT22;24973;47.178;15.316;2022-07-05T04:37:22;17.60;99.90
21799;DHT22;24973;47.178;15.316;2022-07-05T04:40:12;17.60;99.90
21799;DHT22;24973;47.178;15.316;2022-07-05T04:43:02;17.60;99.90
21799;DHT22;24973;47.178;15.316;2022-07-05T04:45:51;17.70;99.90
21799;DHT22;24973;47.178;15.316;2022-07-05T04:48:43;17.70;99.90
21799;DHT22;24973;47.178;15.316;2022-07-05T04:51:32;17.80;99.90
21799;DHT22;24973;47.178;15.316;2022-07-05T04:54:21;17.70;99.90
21799;DHT22;24973;47.178;15.316;2022-07-05T04:57:10;17.80;99.90
21799;DHT22;24973;47.178;15.316;2022-07-05T04:59:59;17.80;99.90
21799;DHT22;24973;47.178;15.316;2022-07-05T05:02:47;17.90;99.90
21799;DHT22;24973;47.178;15.316;2022-07-05T05:05:38;17.90;99.90
21799;DHT22;24973;47.178;15.316;2022-07-05T05:08:26;18.00;99.90
21799;DHT22;24973;47.178;15.316;2022-07-05T05:11:15;18.10;99.90
21799;DHT22;24973;47.178;15.316;2022-07-05T05:14:04;18.20;99.90
21799;DHT22;24973;47.178;15.316;2022-07-05T05:16:53;18.20;99.90
21799;DHT22;24973;47.178;15.316;2022-07-05T05:19:41;18.10;99.90
21799;DHT22;24973;47.178;15.316;2022-07-05T05:22:32;18.10;99.90
21799;DHT22;24973;47.178;15.316;2022-07-05T05:25:21;18.30;99.90
21799;DHT22;24973;47.178;15.316;2022-07-05T05:28:10;18.30;99.90
21799;DHT22;24973;47.178;15.316;2022-07-05T05:30:59;18.40;99.90
21799;DHT22;24973;47.178;15.316;2022-07-05T05:33:48;18.50;99.90
21799;DHT22;24973;47.178;15.316;2022-07-05T05:36:37;18.50;99.90
21799;DHT22;24973;47.178;15.316;2022-07-05T05:39:27;18.60;99.90
21799;DHT22;24973;47.178;15.316;2022-07-05T05:42:16;18.60;99.90
21799;DHT22;24973;47.178;15.316;2022-07-05T05:45:05;18.60;99.90
21799;DHT22;24973;47.178;15.316;2022-07-05T05:47:56;18.60;99.90
21799;DHT22;24973;47.178;15.316;2022-07-05T05:50:46;18.60;99.90
21799;DHT22;24973;47.178;15.316;2022-07-05T05:53:35;18.70;99.90
21799;DHT22;24973;47.178;15.316;2022-07-05T05:56:25;18.70;99.90
21799;DHT22;24973;47.178;15.316;2022-07-05T05:59:14;18.70;99.90
21799;DHT22;24973;47.178;15.316;2022-07-05T06:02:03;18.70;99.90
21799;DHT22;24973;47.178;15.316;2022-07-05T06:04:52;18.60;99.90
21799;DHT22;24973;47.178;15.316;2022-07-05T06:07:46;18.60;99.90
21799;DHT22;24973;47.178;15.316;2022-07-05T06:10:36;18.70;99.90
21799;DHT22;24973;47.178;15.316;2022-07-05T06:13:26;18.70;99.90
21799;DHT22;24973;47.178;15.316;2022-07-05T06:16:15;18.80;99.90
21799;DHT22;24973;47.178;15.316;2022-07-05T06:19:04;18.80;99.90
21799;DHT22;24973;47.178;15.316;2022-07-05T06:21:53;18.90;99.90
21799;DHT22;24973;47.178;15.316;2022-07-05T06:24:45;19.00;99.90
21799;DHT22;24973;47.178;15.316;2022-07-05T06:27:44;19.00;99.90
21799;DHT22;24973;47.178;15.316;2022-07-05T06:30:36;19.00;99.90
21799;DHT22;24973;47.178;15.316;2022-07-05T06:33:25;19.10;99.90
21799;DHT22;24973;47.178;15.316;2022-07-05T06:36:15;19.10;99.90
21799;DHT22;24973;47.178;15.316;2022-07-05T06:39:04;19.20;99.90
21799;DHT22;24973;47.178;15.316;2022-07-05T06:41:52;19.30;99.90
21799;DHT22;24973;47.178;15.316;2022-07-05T06:44:41;19.20;99.90
21799;DHT22;24973;47.178;15.316;2022-07-05T06:47:32;19.20;99.90
21799;DHT22;24973;47.178;15.316;2022-07-05T06:50:21;19.30;99.90
21799;DHT22;24973;47.178;15.316;2022-07-05T06:53:11;19.50;99.90
21799;DHT22;24973;47.178;15.316;2022-07-05T06:56:00;19.70;99.90
21799;DHT22;24973;47.178;15.316;2022-07-05T06:58:48;19.80;99.90
21799;DHT22;24973;47.178;15.316;2022-07-05T07:01:53;19.80;99.90
21799;DHT22;24973;47.178;15.316;2022-07-05T07:05:04;19.80;99.90
21799;DHT22;24973;47.178;15.316;2022-07-05T07:07:55;19.80;99.90
21799;DHT22;24973;47.178;15.316;2022-07-05T07:11:01;19.80;99.90
21799;DHT22;24973;47.178;15.316;2022-07-05T07:13:50;19.80;99.90
21799;DHT22;24973;47.178;15.316;2022-07-05T07:16:39;19.90;99.90
21799;DHT22;24973;47.178;15.316;2022-07-05T07:19:27;20.00;99.90
21799;DHT22;24973;47.178;15.316;2022-07-05T07:22:18;20.20;99.90
21799;DHT22;24973;47.178;15.316;2022-07-05T07:25:07;20.30;99.90
21799;DHT22;24973;47.178;15.316;2022-07-05T07:27:58;20.40;99.90
21799;DHT22;24973;47.178;15.316;2022-07-05T07:30:48;20.50;99.90
21799;DHT22;24973;47.178;15.316;2022-07-05T07:33:36;20.70;99.90
21799;DHT22;24973;47.178;15.316;2022-07-05T07:36:30;20.70;99.90
21799;DHT22;24973;47.178;15.316;2022-07-05T07:39:20;20.70;99.90
21799;DHT22;24973;47.178;15.316;2022-07-05T07:42:08;20.80;99.90
21799;DHT22;24973;47.178;15.316;2022-07-05T07:44:57;20.90;99.90
21799;DHT22;24973;47.178;15.316;2022-07-05T07:47:46;20.90;99.90
21799;DHT22;24973;47.178;15.316;2022-07-05T07:50:35;21.00;99.90
21799;DHT22;24973;47.178;15.316;2022-07-05T07:53:24;21.00;99.90
21799;DHT22;24973;47.178;15.316;2022-07-05T07:56:14;21.10;99.90
21799;DHT22;24973;47.178;15.316;2022-07-05T07:59:03;21.20;99.90
21799;DHT22;24973;47.178;15.316;2022-07-05T08:01:52;21.20;99.90
21799;DHT22;24973;47.178;15.316;2022-07-05T08:04:41;21.20;99.90
21799;DHT22;24973;47.178;15.316;2022-07-05T08:07:30;21.20;99.90
21799;DHT22;24973;47.178;15.316;2022-07-05T08:10:19;21.20;99.90
21799;DHT22;24973;47.178;15.316;2022-07-05T08:13:09;21.30;99.90
21799;DHT22;24973;47.178;15.316;2022-07-05T08:15:58;21.40;99.90
21799;DHT22;24973;47.178;15.316;2022-07-05T08:18:47;21.50;99.90
21799;DHT22;24973;47.178;15.316;2022-07-05T08:30:22;21.70;99.90
21799;DHT22;24973;47.178;15.316;2022-07-05T08:33:11;21.70;99.90
21799;DHT22;24973;47.178;15.316;2022-07-05T08:38:50;21.80;99.90
21799;DHT22;24973;47.178;15.316;2022-07-05T08:41:41;21.70;99.90
21799;DHT22;24973;47.178;15.316;2022-07-05T08:44:33;21.60;99.90
21799;DHT22;24973;47.178;15.316;2022-07-05T08:47:27;21.60;99.90
21799;DHT22;24973;47.178;15.316;2022-07-05T09:01:37;22.10;99.90
21799;DHT22;24973;47.178;15.316;2022-07-05T09:04:31;22.60;99.90
21799;DHT22;24973;47.178;15.316;2022-07-05T09:07:26;22.70;99.90
21799;DHT22;24973;47.178;15.316;2022-07-05T09:10:20;22.70;99.90
21799;DHT22;24973;47.178;15.316;2022-07-05T09:15:59;22.60;99.90
21799;DHT22;24973;47.178;15.316;2022-07-05T09:18:51;22.60;99.90
21799;DHT22;24973;47.178;15.316;2022-07-05T09:21:45;22.90;99.90
21799;DHT22;24973;47.178;15.316;2022-07-05T09:24:43;22.80;99.90
21799;DHT22;24973;47.178;15.316;2022-07-05T09:30:26;23.60;99.90
21799;DHT22;24973;47.178;15.316;2022-07-05T09:36:08;24.40;99.90
21799;DHT22;24973;47.178;15.316;2022-07-05T09:38:58;24.60;99.90
21799;DHT22;24973;47.178;15.316;2022-07-05T09:44:37;24.70;99.90
21799;DHT22;24973;47.178;15.316;2022-07-05T09:47:27;24.90;99.90
21799;DHT22;24973;47.178;15.316;2022-07-05T09:50:34;25.10;99.90
21799;DHT22;24973;47.178;15.316;2022-07-05T09:53:45;25.30;99.90
21799;DHT22;24973;47.178;15.316;2022-07-05T09:56:45;24.70;99.90
21799;DHT22;24973;47.178;15.316;2022-07-05T09:59:35;25.00;99.90
21799;DHT22;24973;47.178;15.316;2022-07-05T10:02:34;24.80;99.90
21799;DHT22;24973;47.178;15.316;2022-07-05T10:05:28;24.80;99.90
21799;DHT22;24973;47.178;15.316;2022-07-05T10:08:20;24.40;99.90
21799;DHT22;24973;47.178;15.316;2022-07-05T10:14:03;24.20;99.90
21799;DHT22;24973;47.178;15.316;2022-07-05T10:16:58;23.90;99.90
21799;DHT22;24973;47.178;15.316;2022-07-05T10:19:49;23.70;99.90
21799;DHT22;24973;47.178;15.316;2022-07-05T10:22:40;24.10;99.90
21799;DHT22;24973;47.178;15.316;2022-07-05T10:25:29;24.50;99.90
21799;DHT22;24973;47.178;15.316;2022-07-05T10:28:20;24.50;99.90
21799;DHT22;24973;47.178;15.316;2022-07-05T10:31:12;24.70;99.90
21799;DHT22;24973;47.178;15.316;2022-07-05T10:34:02;24.70;99.90
21799;DHT22;24973;47.178;15.316;2022-07-05T10:37:04;24.70;99.90
21799;DHT22;24973;47.178;15.316;2022-07-05T10:39:53;24.70;99.90
21799;DHT22;24973;47.178;15.316;2022-07-05T10:42:45;24.60;99.90
21799;DHT22;24973;47.178;15.316;2022-07-05T10:45:36;24.60;99.90
21799;DHT22;24973;47.178;15.316;2022-07-05T10:48:29;24.80;99.90
21799;DHT22;24973;47.178;15.316;2022-07-05T10:51:18;24.80;99.90
21799;DHT22;24973;47.178;15.316;2022-07-05T10:54:08;24.80;99.90
21799;DHT22;24973;47.178;15.316;2022-07-05T10:57:22;24.90;99.90
21799;DHT22;24973;47.178;15.316;2022-07-05T11:00:12;25.20;99.90
21799;DHT22;24973;47.178;15.316;2022-07-05T11:03:06;25.20;99.90
21799;DHT22;24973;47.178;15.316;2022-07-05T11:05:57;25.10;99.90
21799;DHT22;24973;47.178;15.316;2022-07-05T11:09:16;25.00;99.90
21799;DHT22;24973;47.178;15.316;2022-07-05T11:12:07;24.90;99.90
21799;DHT22;24973;47.178;15.316;2022-07-05T11:15:17;24.80;99.90
21799;DHT22;24973;47.178;15.316;2022-07-05T11:18:15;24.60;99.90
21799;DHT22;24973;47.178;15.316;2022-07-05T11:21:17;24.60;99.90
21799;DHT22;24973;47.178;15.316;2022-07-05T11:24:21;25.00;99.90
21799;DHT22;24973;47.178;15.316;2022-07-05T11:27:11;25.70;99.90
21799;DHT22;24973;47.178;15.316;2022-07-05T11:30:00;25.90;99.90
21799;DHT22;24973;47.178;15.316;2022-07-05T11:32:49;26.20;99.90
21799;DHT22;24973;47.178;15.316;2022-07-05T11:35:39;26.00;99.90
21799;DHT22;24973;47.178;15.316;2022-07-05T11:38:32;26.00;99.90
21799;DHT22;24973;47.178;15.316;2022-07-05T11:41:43;26.20;99.90
21799;DHT22;24973;47.178;15.316;2022-07-05T11:44:33;26.40;99.90
21799;DHT22;24973;47.178;15.316;2022-07-05T11:47:38;26.70;99.90
21799;DHT22;24973;47.178;15.316;2022-07-05T11:50:30;26.60;99.90
21799;DHT22;24973;47.178;15.316;2022-07-05T11:53:27;27.00;99.90
21799;DHT22;24973;47.178;15.316;2022-07-05T11:56:38;27.10;99.90
21799;DHT22;24973;47.178;15.316;2022-07-05T11:59:28;27.00;99.90
21799;DHT22;24973;47.178;15.316;2022-07-05T12:02:18;27.20;99.90
21799;DHT22;24973;47.178;15.316;2022-07-05T12:05:07;27.10;99.20
21799;DHT22;24973;47.178;15.316;2022-07-05T12:10:46;27.40;96.10
21799;DHT22;24973;47.178;15.316;2022-07-05T12:13:56;27.70;96.20
21799;DHT22;24973;47.178;15.316;2022-07-05T12:16:45;27.40;93.30
21799;DHT22;24973;47.178;15.316;2022-07-05T12:22:30;27.10;93.50
21799;DHT22;24973;47.178;15.316;2022-07-05T12:25:21;27.30;92.20
21799;DHT22;24973;47.178;15.316;2022-07-05T12:31:14;27.30;95.70
21799;DHT22;24973;47.178;15.316;2022-07-05T12:34:16;27.80;93.90
21799;DHT22;24973;47.178;15.316;2022-07-05T12:37:09;27.60;90.10
21799;DHT22;24973;47.178;15.316;2022-07-05T12:40:03;27.60;90.30
21799;DHT22;24973;47.178;15.316;2022-07-05T12:43:01;27.90;90.20
21799;DHT22;24973;47.178;15.316;2022-07-05T12:46:00;28.30;90.50
21799;DHT22;24973;47.178;15.316;2022-07-05T12:48:52;28.80;91.30
21799;DHT22;24973;47.178;15.316;2022-07-05T12:51:43;29.20;87.10
21799;DHT22;24973;47.178;15.316;2022-07-05T12:54:32;29.30;80.80
21799;DHT22;24973;47.178;15.316;2022-07-05T12:57:48;29.10;80.60
21799;DHT22;24973;47.178;15.316;2022-07-05T13:00:52;29.00;80.50
21799;DHT22;24973;47.178;15.316;2022-07-05T13:04:02;29.00;76.30
21799;DHT22;24973;47.178;15.316;2022-07-05T13:06:54;29.20;80.80
21799;DHT22;24973;47.178;15.316;2022-07-05T13:09:44;29.20;76.20
21799;DHT22;24973;47.178;15.316;2022-07-05T13:12:33;29.40;75.40
21799;DHT22;24973;47.178;15.316;2022-07-05T13:15:22;29.60;74.20
21799;DHT22;24973;47.178;15.316;2022-07-05T13:18:11;29.50;72.40
21799;DHT22;24973;47.178;15.316;2022-07-05T13:21:01;29.30;75.70
21799;DHT22;24973;47.178;15.316;2022-07-05T13:23:50;29.50;74.00
21799;DHT22;24973;47.178;15.316;2022-07-05T13:26:39;29.80;74.20
21799;DHT22;24973;47.178;15.316;2022-07-05T13:29:27;29.90;71.70
21799;DHT22;24973;47.178;15.316;2022-07-05T13:32:17;29.40;70.10
21799;DHT22;24973;47.178;15.316;2022-07-05T13:35:08;28.90;69.90
21799;DHT22;24973;47.178;15.316;2022-07-05T13:37:59;28.50;71.40
21799;DHT22;24973;47.178;15.316;2022-07-05T13:40:48;28.20;72.30
21799;DHT22;24973;47.178;15.316;2022-07-05T13:43:37;27.70;69.80
21799;DHT22;24973;47.178;15.316;2022-07-05T13:46:26;27.30;71.30
21799;DHT22;24973;47.178;15.316;2022-07-05T13:49:15;27.70;74.50
21799;DHT22;24973;47.178;15.316;2022-07-05T13:52:05;28.10;75.90
21799;DHT22;24973;47.178;15.316;2022-07-05T13:54:55;28.50;73.20
21799;DHT22;24973;47.178;15.316;2022-07-05T13:57:44;29.00;68.50
21799;DHT22;24973;47.178;15.316;2022-07-05T14:00:33;28.80;70.30
21799;DHT22;24973;47.178;15.316;2022-07-05T14:03:22;29.00;70.20
21799;DHT22;24973;47.178;15.316;2022-07-05T14:06:11;29.40;72.40
21799;DHT22;24973;47.178;15.316;2022-07-05T14:09:00;29.90;69.40
21799;DHT22;24973;47.178;15.316;2022-07-05T14:11:50;30.50;71.00
21799;DHT22;24973;47.178;15.316;2022-07-05T14:14:39;30.90;68.50
21799;DHT22;24973;47.178;15.316;2022-07-05T14:17:28;31.10;63.60
21799;DHT22;24973;47.178;15.316;2022-07-05T14:20:17;31.50;60.30
21799;DHT22;24973;47.178;15.316;2022-07-05T14:23:05;31.20;61.20
21799;DHT22;24973;47.178;15.316;2022-07-05T14:25:57;31.10;60.60
21799;DHT22;24973;47.178;15.316;2022-07-05T14:28:47;31.20;57.60
21799;DHT22;24973;47.178;15.316;2022-07-05T14:31:36;30.40;57.90
21799;DHT22;24973;47.178;15.316;2022-07-05T14:34:25;30.30;59.40
21799;DHT22;24973;47.178;15.316;2022-07-05T14:37:14;30.40;60.10
21799;DHT22;24973;47.178;15.316;2022-07-05T14:40:08;30.50;58.40
21799;DHT22;24973;47.178;15.316;2022-07-05T14:45:33;30.50;60.50
21799;DHT22;24973;47.178;15.316;2022-07-05T14:48:22;30.70;61.20
21799;DHT22;24973;47.178;15.316;2022-07-05T14:51:11;31.10;59.50
21799;DHT22;24973;47.178;15.316;2022-07-05T14:53:59;31.50;58.30
21799;DHT22;24973;47.178;15.316;2022-07-05T14:56:48;31.80;57.70
21799;DHT22;24973;47.178;15.316;2022-07-05T14:59:40;32.10;56.20
21799;DHT22;24973;47.178;15.316;2022-07-05T15:02:31;31.90;54.50
21799;DHT22;24973;47.178;15.316;2022-07-05T15:05:20;31.60;55.00
21799;DHT22;24973;47.178;15.316;2022-07-05T15:08:09;31.50;56.70
21799;DHT22;24973;47.178;15.316;2022-07-05T15:10:58;31.50;56.00
21799;DHT22;24973;47.178;15.316;2022-07-05T15:13:47;31.40;55.30
21799;DHT22;24973;47.178;15.316;2022-07-05T15:16:36;31.50;57.00
21799;DHT22;24973;47.178;15.316;2022-07-05T15:19:27;31.70;56.90
21799;DHT22;24973;47.178;15.316;2022-07-05T15:22:16;32.00;55.10
21799;DHT22;24973;47.178;15.316;2022-07-05T15:25:06;32.50;52.90
21799;DHT22;24973;47.178;15.316;2022-07-05T15:27:56;32.80;53.40
21799;DHT22;24973;47.178;15.316;2022-07-05T15:30:44;33.20;54.00
21799;DHT22;24973;47.178;15.316;2022-07-05T15:33:33;33.60;53.30
21799;DHT22;24973;47.178;15.316;2022-07-05T15:36:24;34.00;52.90
21799;DHT22;24973;47.178;15.316;2022-07-05T15:39:13;34.30;53.20
21799;DHT22;24973;47.178;15.316;2022-07-05T15:42:03;34.40;49.80
21799;DHT22;24973;47.178;15.316;2022-07-05T15:44:53;34.50;48.80
21799;DHT22;24973;47.178;15.316;2022-07-05T15:47:48;34.50;50.70
21799;DHT22;24973;47.178;15.316;2022-07-05T15:50:36;34.50;49.50
21799;DHT22;24973;47.178;15.316;2022-07-05T15:53:27;34.40;50.20
21799;DHT22;24973;47.178;15.316;2022-07-05T15:56:16;34.30;48.90
21799;DHT22;24973;47.178;15.316;2022-07-05T15:59:05;34.20;47.90
21799;DHT22;24973;47.178;15.316;2022-07-05T16:01:54;34.30;49.00
21799;DHT22;24973;47.178;15.316;2022-07-05T16:04:42;34.30;48.30
21799;DHT22;24973;47.178;15.316;2022-07-05T16:07:31;34.00;48.90
21799;DHT22;24973;47.178;15.316;2022-07-05T16:10:21;33.90;50.60
21799;DHT22;24973;47.178;15.316;2022-07-05T16:13:22;33.10;50.50
21799;DHT22;24973;47.178;15.316;2022-07-05T16:16:11;31.70;51.40
21799;DHT22;24973;47.178;15.316;2022-07-05T16:19:00;30.70;52.90
21799;DHT22;24973;47.178;15.316;2022-07-05T16:21:49;29.70;53.90
21799;DHT22;24973;47.178;15.316;2022-07-05T16:24:38;29.10;55.70
21799;DHT22;24973;47.178;15.316;2022-07-05T16:27:28;28.90;57.40
21799;DHT22;24973;47.178;15.316;2022-07-05T16:30:17;28.80;56.10
21799;DHT22;24973;47.178;15.316;2022-07-05T16:33:06;28.60;58.40
21799;DHT22;24973;47.178;15.316;2022-07-05T16:35:55;28.30;60.00
21799;DHT22;24973;47.178;15.316;2022-07-05T16:38:44;27.90;63.70
21799;DHT22;24973;47.178;15.316;2022-07-05T16:41:32;27.50;65.50
21799;DHT22;24973;47.178;15.316;2022-07-05T16:44:23;27.00;64.30
21799;DHT22;24973;47.178;15.316;2022-07-05T16:47:11;26.50;62.50
21799;DHT22;24973;47.178;15.316;2022-07-05T16:50:00;26.20;62.30
21799;DHT22;24973;47.178;15.316;2022-07-05T16:52:50;26.00;66.20
21799;DHT22;24973;47.178;15.316;2022-07-05T16:55:39;25.80;68.60
21799;DHT22;24973;47.178;15.316;2022-07-05T16:58:28;25.60;70.70
21799;DHT22;24973;47.178;15.316;2022-07-05T17:01:20;25.50;73.70
21799;DHT22;24973;47.178;15.316;2022-07-05T17:04:10;25.30;71.20
21799;DHT22;24973;47.178;15.316;2022-07-05T17:06:59;25.20;71.70
21799;DHT22;24973;47.178;15.316;2022-07-05T17:09:48;25.00;75.10
21799;DHT22;24973;47.178;15.316;2022-07-05T17:12:37;24.90;77.00
21799;DHT22;24973;47.178;15.316;2022-07-05T17:15:25;24.80;77.40
21799;DHT22;24973;47.178;15.316;2022-07-05T17:18:15;24.70;77.70
21799;DHT22;24973;47.178;15.316;2022-07-05T17:21:05;24.60;80.60
21799;DHT22;24973;47.178;15.316;2022-07-05T17:23:56;24.40;83.40
21799;DHT22;24973;47.178;15.316;2022-07-05T17:26:45;24.30;84.50
21799;DHT22;24973;47.178;15.316;2022-07-05T17:29:34;24.20;86.70
21799;DHT22;24973;47.178;15.316;2022-07-05T17:32:23;24.00;83.30
21799;DHT22;24973;47.178;15.316;2022-07-05T17:35:14;23.90;85.20
21799;DHT22;24973;47.178;15.316;2022-07-05T17:38:02;23.90;79.10
21799;DHT22;24973;47.178;15.316;2022-07-05T17:40:51;23.80;78.60
21799;DHT22;24973;47.178;15.316;2022-07-05T17:43:40;23.70;76.20
21799;DHT22;24973;47.178;15.316;2022-07-05T17:46:33;23.70;80.50
21799;DHT22;24973;47.178;15.316;2022-07-05T17:49:21;23.60;82.00
21799;DHT22;24973;47.178;15.316;2022-07-05T17:52:11;23.50;79.80
21799;DHT22;24973;47.178;15.316;2022-07-05T17:55:00;23.40;83.50
21799;DHT22;24973;47.178;15.316;2022-07-05T17:57:49;23.40;83.30
21799;DHT22;24973;47.178;15.316;2022-07-05T18:00:38;23.30;82.20
21799;DHT22;24973;47.178;15.316;2022-07-05T18:03:27;23.20;82.80
21799;DHT22;24973;47.178;15.316;2022-07-05T18:06:15;23.10;78.50
21799;DHT22;24973;47.178;15.316;2022-07-05T18:09:08;23.00;82.00
21799;DHT22;24973;47.178;15.316;2022-07-05T18:11:57;23.00;83.40
21799;DHT22;24973;47.178;15.316;2022-07-05T18:14:45;22.80;85.20
21799;DHT22;24973;47.178;15.316;2022-07-05T18:17:34;22.70;85.00
21799;DHT22;24973;47.178;15.316;2022-07-05T18:20:23;22.60;85.20
21799;DHT22;24973;47.178;15.316;2022-07-05T18:23:12;22.50;86.30
21799;DHT22;24973;47.178;15.316;2022-07-05T18:26:03;22.40;88.10
21799;DHT22;24973;47.178;15.316;2022-07-05T18:28:51;22.30;90.50